createdAt,value
2023-01-09T00:00:46.150Z,97250.47
2023-01-09T00:03:13.504Z,97236.41
2023-01-09T00:05:40.435Z,97239.44
2023-01-09T00:08:07.626Z,97231.28
2023-01-09T00:10:34.566Z,97237.06
2023-01-09T00:13:01.434Z,97238.56
2023-01-09T00:15:28.264Z,97249.09
2023-01-09T00:17:54.926Z,97242.19
2023-01-09T00:20:21.860Z,97242.19
2023-01-09T00:22:48.701Z,97249.91
2023-01-09T00:25:15.469Z,97247.97
2023-01-09T00:27:42.304Z,97251.69
2023-01-09T00:30:09.709Z,97242.72
2023-01-09T00:32:36.544Z,97229.09
2023-01-09T00:35:03.270Z,97233.00
2023-01-09T00:37:30.114Z,97218.84
2023-01-09T00:39:56.795Z,97224.75
2023-01-09T00:42:26.638Z,97216.41
2023-01-09T00:44:56.956Z,97213.88
2023-01-09T00:47:28.423Z,97200.84
2023-01-09T00:49:55.948Z,97200.22
2023-01-09T00:52:22.825Z,97197.75
2023-01-09T00:54:49.989Z,97201.94
2023-01-09T00:57:17.019Z,97194.78
2023-01-09T00:59:44.361Z,97201.63
2023-01-09T01:02:11.594Z,97198.63
2023-01-09T01:04:57.026Z,97189.66
2023-01-09T01:07:39.276Z,97192.53
2023-01-09T01:10:08.902Z,97208.88
2023-01-09T01:12:35.749Z,97186.19
2023-01-09T01:15:02.595Z,97194.91
2023-01-09T01:17:29.258Z,97203.63
2023-01-09T01:19:56.526Z,97194.31
2023-01-09T01:22:23.374Z,97193.94
2023-01-09T01:24:50.284Z,97192.12
2023-01-09T01:27:17.152Z,97188.63
2023-01-09T01:29:44.145Z,97188.81
2023-01-09T01:32:11.892Z,97188.31
2023-01-09T01:34:38.725Z,97191.84
2023-01-09T01:37:05.686Z,97190.09
2023-01-09T01:39:32.594Z,97185.41
2023-01-09T01:41:59.433Z,97179.19
2023-01-09T01:44:44.860Z,97174.31
2023-01-09T01:47:11.746Z,97167.63
2023-01-09T01:49:38.608Z,97163.41
2023-01-09T01:52:05.544Z,97174.34
2023-01-09T01:54:33.071Z,97160.81
2023-01-09T01:57:03.397Z,97159.94
2023-01-09T01:59:41.456Z,97152.81
2023-01-09T02:02:08.597Z,97154.62
2023-01-09T02:04:39.357Z,97136.28
2023-01-09T02:07:09.492Z,97149.41
2023-01-09T02:09:38.060Z,97145.56
2023-01-09T02:12:25.590Z,97141.03
2023-01-09T02:14:55.263Z,97138.56
2023-01-09T02:17:46.419Z,97127.31
2023-01-09T02:20:37.119Z,97124.88
2023-01-09T02:23:28.930Z,97118.06
2023-01-09T02:26:01.878Z,97112.13
2023-01-09T02:28:34.760Z,97111.53
2023-01-09T02:31:04.201Z,97096.19
2023-01-09T02:33:39.897Z,97099.63
2023-01-09T02:36:17.455Z,97089.66
2023-01-09T02:39:16.740Z,97094.44
2023-01-09T02:41:52.911Z,97080.97
2023-01-09T02:44:26.165Z,97081.59
2023-01-09T02:47:15.596Z,97089.09
2023-01-09T02:50:02.874Z,97078.41
2023-01-09T02:53:00.776Z,97075.00
2023-01-09T02:55:46.016Z,97072.06
2023-01-09T02:58:41.780Z,97060.56
2023-01-09T03:01:24.060Z,97068.13
2023-01-09T03:04:11.226Z,97063.91
2023-01-09T03:06:54.449Z,97063.59
2023-01-09T03:09:24.224Z,97062.09
2023-01-09T03:11:55.620Z,97066.91
2023-01-09T03:14:24.102Z,97066.22
2023-01-09T03:16:54.877Z,97063.47
2023-01-09T03:19:24.604Z,97075.00
2023-01-09T03:21:53.159Z,97070.09
2023-01-09T03:24:20.023Z,97077.25
2023-01-09T03:26:46.970Z,97074.00
2023-01-09T03:29:14.031Z,97071.19
2023-01-09T03:31:40.938Z,97072.28
2023-01-09T03:34:07.966Z,97077.03
2023-01-09T03:36:34.861Z,97072.13
2023-01-09T03:39:01.708Z,97071.53
2023-01-09T03:41:28.591Z,97067.03
2023-01-09T03:43:55.431Z,97062.12
2023-01-09T03:46:22.320Z,97061.69
2023-01-09T03:48:49.178Z,97064.75
2023-01-09T03:51:16.047Z,97055.03
2023-01-09T03:53:42.894Z,97063.16
2023-01-09T03:56:09.865Z,97055.28
2023-01-09T03:58:36.744Z,97057.56
2023-01-09T04:01:05.767Z,97048.75
2023-01-09T04:03:32.797Z,97045.16
2023-01-09T04:05:59.960Z,97046.44
2023-01-09T04:08:26.862Z,97045.44
2023-01-09T04:10:53.794Z,97035.91
2023-01-09T04:13:20.679Z,97047.31
2023-01-09T04:15:47.545Z,97050.59
2023-01-09T04:18:14.880Z,97052.94
2023-01-09T04:20:42.329Z,97043.06
2023-01-09T04:23:09.201Z,97034.53
2023-01-09T04:25:36.121Z,97048.72
2023-01-09T04:28:03.047Z,97040.59
2023-01-09T04:30:29.935Z,97031.38
2023-01-09T04:32:56.849Z,97038.53
2023-01-09T04:35:23.798Z,97038.19
2023-01-09T04:37:50.717Z,97035.78
2023-01-09T04:40:18.239Z,97031.78
2023-01-09T04:42:45.109Z,97021.44
2023-01-09T04:45:12.599Z,97033.72
2023-01-09T04:47:39.422Z,97022.63
2023-01-09T04:50:06.173Z,97021.84
2023-01-09T04:52:33.054Z,97020.25
2023-01-09T04:54:59.944Z,97020.25
2023-01-09T04:57:26.880Z,97024.62
2023-01-09T04:59:54.366Z,97035.09
2023-01-09T05:02:21.440Z,97036.84
2023-01-09T05:04:48.525Z,97031.22
2023-01-09T05:07:15.389Z,97034.19
2023-01-09T05:09:43.087Z,97037.03
2023-01-09T05:12:09.972Z,97044.59
2023-01-09T05:14:36.845Z,97040.19
2023-01-09T05:17:03.710Z,97043.50
2023-01-09T05:19:30.588Z,97044.44
2023-01-09T05:21:57.423Z,97037.81
2023-01-09T05:24:24.095Z,97040.03
2023-01-09T05:26:51.028Z,97045.44
2023-01-09T05:29:17.947Z,97042.88
2023-01-09T05:31:44.924Z,97031.53
2023-01-09T05:34:11.907Z,97032.62
2023-01-09T05:36:38.778Z,97038.19
2023-01-09T05:39:06.702Z,97044.09
2023-01-09T05:41:33.627Z,97036.16
2023-01-09T05:44:00.488Z,97047.78
2023-01-09T05:46:27.346Z,97044.47
2023-01-09T05:48:54.246Z,97035.53
2023-01-09T05:51:21.119Z,97031.97
2023-01-09T05:53:47.985Z,97038.53
2023-01-09T05:56:14.937Z,97033.22
2023-01-09T05:58:41.884Z,97043.03
2023-01-09T06:01:09.164Z,97039.72
2023-01-09T06:03:36.019Z,97040.59
2023-01-09T06:06:02.717Z,97025.78
2023-01-09T06:08:29.535Z,97025.19
2023-01-09T06:10:56.217Z,97031.06
2023-01-09T06:13:23.071Z,97032.97
2023-01-09T06:15:49.989Z,97029.25
2023-01-09T06:18:17.022Z,97018.69
2023-01-09T06:20:46.697Z,97016.69
2023-01-09T06:23:13.899Z,97025.59
2023-01-09T06:25:41.339Z,97010.50
2023-01-09T06:28:08.314Z,97013.50
2023-01-09T06:30:35.338Z,97023.06
2023-01-09T06:33:02.277Z,97022.72
2023-01-09T06:35:29.257Z,97018.97
2023-01-09T06:37:57.457Z,97016.25
2023-01-09T06:40:24.360Z,97010.81
2023-01-09T06:42:51.278Z,97013.53
2023-01-09T06:45:18.285Z,97007.09
2023-01-09T06:47:45.143Z,97007.34
2023-01-09T06:50:12.459Z,97009.06
2023-01-09T06:52:39.567Z,97016.44
2023-01-09T06:55:07.876Z,97005.87
2023-01-09T06:57:35.209Z,97009.50
2023-01-09T07:00:02.421Z,97004.75
2023-01-09T07:02:29.393Z,97011.94
2023-01-09T07:04:56.505Z,97007.22
2023-01-09T07:07:23.695Z,96993.50
2023-01-09T07:15:17.902Z,97016.78
2023-01-09T07:17:44.842Z,97012.94
2023-01-09T07:20:12.055Z,96999.13
2023-01-09T07:22:38.907Z,97013.44
2023-01-09T07:25:06.083Z,97017.84
2023-01-09T07:27:32.997Z,97013.84
2023-01-09T07:29:59.876Z,97025.75
2023-01-09T07:32:26.826Z,97019.78
2023-01-09T07:34:53.680Z,97026.84
2023-01-09T07:37:20.576Z,97013.81
2023-01-09T07:39:47.406Z,97017.56
2023-01-09T07:42:14.582Z,97008.09
2023-01-09T07:44:41.473Z,97004.03
2023-01-09T07:47:08.818Z,97006.50
2023-01-09T07:49:35.648Z,97006.22
2023-01-09T07:52:02.608Z,97005.97
2023-01-09T07:54:29.438Z,97008.72
2023-01-09T07:56:56.384Z,97000.84
2023-01-09T07:59:23.531Z,96996.38
2023-01-09T08:01:50.489Z,96992.44
2023-01-09T08:04:17.447Z,96985.53
2023-01-09T08:06:44.281Z,96991.19
2023-01-09T08:09:11.002Z,96997.41
2023-01-09T08:11:43.856Z,97003.72
2023-01-09T08:14:10.721Z,96998.78
2023-01-09T08:16:37.581Z,96995.44
2023-01-09T08:19:04.478Z,96998.63
2023-01-09T08:21:31.359Z,96991.44
2023-01-09T08:23:58.195Z,96992.50
2023-01-09T08:26:24.887Z,96990.16
2023-01-09T08:28:51.861Z,96990.81
2023-01-09T08:31:18.814Z,97003.09
2023-01-09T08:33:45.658Z,96996.97
2023-01-09T08:36:12.441Z,96993.75
2023-01-09T08:38:39.311Z,97003.63
2023-01-09T08:41:26.266Z,97000.72
2023-01-09T08:44:11.638Z,96998.94
2023-01-09T08:46:57.272Z,97001.28
2023-01-09T08:49:24.172Z,97006.28
2023-01-09T08:51:51.057Z,96993.69
2023-01-09T08:54:17.936Z,97000.31
2023-01-09T08:56:44.880Z,97007.66
2023-01-09T08:59:11.997Z,97006.72
2023-01-09T09:01:38.983Z,97009.62
2023-01-09T09:04:06.089Z,97005.31
2023-01-09T09:06:33.768Z,97011.56
2023-01-09T09:09:03.761Z,97009.12
2023-01-09T09:11:31.077Z,97004.13
2023-01-09T09:13:58.258Z,97009.00
2023-01-09T09:16:28.281Z,97010.56
2023-01-09T09:18:55.197Z,97004.66
2023-01-09T09:21:27.860Z,97000.00
2023-01-09T09:23:57.993Z,97007.56
2023-01-09T09:26:24.855Z,97007.38
2023-01-09T09:28:51.787Z,96991.37
2023-01-09T09:31:18.747Z,96981.88
2023-01-09T09:33:45.615Z,96980.13
2023-01-09T09:36:12.514Z,96975.09
2023-01-09T09:38:39.339Z,96974.25
2023-01-09T09:41:38.229Z,96974.63
2023-01-09T09:44:36.463Z,96973.69
2023-01-09T09:47:13.674Z,96974.97
2023-01-09T09:49:52.620Z,96968.22
2023-01-09T09:52:31.570Z,96973.47
2023-01-09T09:55:01.708Z,96970.38
2023-01-09T10:00:51.223Z,96971.16
2023-01-09T10:12:28.596Z,96948.06
2023-01-09T10:14:58.308Z,96952.63
2023-01-09T10:23:11.830Z,96937.50
2023-01-09T10:29:08.586Z,96934.81
2023-01-09T10:32:18.401Z,96920.94
2023-01-09T10:35:11.275Z,96913.91
2023-01-09T10:43:55.051Z,96909.97
2023-01-09T10:49:17.916Z,96894.44
2023-01-09T10:51:57.685Z,96894.81
2023-01-09T11:00:24.092Z,96892.03
2023-01-09T11:02:53.103Z,96877.59
2023-01-09T11:26:25.577Z,96849.69
2023-01-09T11:37:26.508Z,96838.19
2023-01-09T11:45:04.350Z,96836.91
2023-01-09T11:53:19.750Z,96831.00
2023-01-09T11:55:47.913Z,96817.78
2023-01-09T11:58:21.190Z,96826.75
2023-01-09T12:04:29.189Z,96830.75
2023-01-09T12:07:16.978Z,96816.81
2023-01-09T12:09:47.079Z,96811.69
2023-01-09T12:12:22.856Z,96821.25
2023-01-09T12:15:21.886Z,96819.78
2023-01-09T12:18:26.081Z,96817.72
2023-01-09T12:21:17.907Z,96818.59
2023-01-09T12:24:12.088Z,96820.25
2023-01-09T12:26:58.724Z,96820.63
2023-01-09T12:35:54.910Z,96809.84
2023-01-09T12:41:45.022Z,96825.09
2023-01-09T12:44:35.079Z,96823.63
2023-01-09T12:47:23.894Z,96831.66
2023-01-09T12:50:25.866Z,96832.53
2023-01-09T12:53:17.436Z,96823.59
2023-01-09T12:56:08.324Z,96817.56
2023-01-09T12:58:59.943Z,96826.50
2023-01-09T13:01:33.130Z,96816.84
2023-01-09T13:04:28.154Z,96826.12
2023-01-09T13:06:59.351Z,96816.78
2023-01-09T13:09:44.025Z,96813.66
2023-01-09T13:12:29.328Z,96821.53
2023-01-09T13:15:06.305Z,96821.00
2023-01-09T13:18:13.121Z,96822.09
2023-01-09T13:20:56.642Z,96819.38
2023-01-09T13:23:34.313Z,96826.38
2023-01-09T13:26:07.535Z,96829.00
2023-01-09T13:28:47.209Z,96821.69
2023-01-09T13:31:23.482Z,96825.00
2023-01-09T13:33:54.668Z,96826.66
2023-01-09T13:36:48.170Z,96845.09
2023-01-09T13:39:27.328Z,96853.97
2023-01-09T13:42:20.919Z,96841.78
2023-01-09T13:44:48.993Z,96833.31
2023-01-09T13:47:28.178Z,96843.53
2023-01-09T13:50:01.278Z,96840.25
2023-01-09T13:52:54.180Z,96841.66
2023-01-09T13:55:24.173Z,96848.31
2023-01-09T13:58:06.643Z,96849.09
2023-01-09T14:00:36.607Z,96860.87
2023-01-09T14:03:23.360Z,96868.81
2023-01-09T14:05:50.136Z,96871.47
2023-01-09T14:08:20.389Z,96882.50
2023-01-09T14:10:52.331Z,96869.22
2023-01-09T14:13:23.316Z,96866.38
2023-01-09T14:15:51.694Z,96876.53
2023-01-09T14:18:29.929Z,96870.78
2023-01-09T14:23:54.339Z,96856.78
2023-01-09T14:26:44.941Z,96860.34
2023-01-09T14:29:36.702Z,96867.22
2023-01-09T14:32:30.893Z,96876.69
2023-01-09T14:35:11.100Z,96868.72
2023-01-09T14:37:40.680Z,96864.72
2023-01-09T14:40:15.392Z,96867.13
2023-01-09T14:42:42.597Z,96854.16
2023-01-09T14:45:19.598Z,96860.34
2023-01-09T14:48:03.367Z,96868.84
2023-01-09T14:50:37.869Z,96863.81
2023-01-09T14:53:12.504Z,96867.09
2023-01-09T14:55:48.903Z,96856.06
2023-01-09T14:58:18.445Z,96855.28
2023-01-09T15:00:55.005Z,96864.84
2023-01-09T15:03:23.170Z,96863.41
2023-01-09T15:05:52.874Z,96857.19
2023-01-09T15:08:23.089Z,96859.56
2023-01-09T15:10:51.768Z,96848.38
2023-01-09T15:13:30.887Z,96846.44
2023-01-09T15:15:58.612Z,96841.78
2023-01-09T15:18:27.886Z,96848.19
2023-01-09T15:20:59.172Z,96850.59
2023-01-09T15:23:30.598Z,96846.16
2023-01-09T15:26:12.241Z,96844.44
2023-01-09T15:28:43.053Z,96852.59
2023-01-09T15:31:18.393Z,96851.63
2023-01-09T15:33:46.890Z,96822.87
2023-01-09T15:36:25.641Z,96809.44
2023-01-09T15:38:52.979Z,96807.56
2023-01-09T15:41:44.115Z,96820.50
2023-01-09T15:44:24.223Z,96816.53
2023-01-09T15:46:51.989Z,96831.59
2023-01-09T15:49:19.746Z,96829.19
2023-01-09T15:51:47.202Z,96836.09
2023-01-09T15:54:15.680Z,96833.38
2023-01-09T15:56:45.562Z,96831.31
2023-01-09T15:59:28.791Z,96829.00
2023-01-09T16:02:24.652Z,96813.91
2023-01-09T16:04:53.138Z,96820.16
2023-01-09T16:07:20.861Z,96810.69
2023-01-09T16:09:48.877Z,96816.22
2023-01-09T16:12:21.561Z,96806.53
2023-01-09T16:14:53.642Z,96808.94
2023-01-09T16:17:24.027Z,96822.00
2023-01-09T16:19:53.766Z,96819.97
2023-01-09T16:22:32.040Z,96825.06
2023-01-09T16:25:01.161Z,96823.44
2023-01-09T16:27:30.650Z,96821.22
2023-01-09T16:30:06.360Z,96806.34
2023-01-09T16:32:45.998Z,96809.13
2023-01-09T16:35:18.485Z,96807.56
2023-01-09T16:37:45.355Z,96810.84
2023-01-09T16:40:15.065Z,96818.22
2023-01-09T16:43:00.639Z,96804.84
2023-01-09T16:45:29.471Z,96808.00
2023-01-09T16:47:58.174Z,96809.09
2023-01-09T16:50:25.555Z,96807.19
2023-01-09T16:52:53.155Z,96802.63
2023-01-09T16:55:20.042Z,96807.47
2023-01-09T16:57:46.950Z,96819.97
2023-01-09T17:00:18.941Z,96812.50
2023-01-09T17:02:46.231Z,96811.19
2023-01-09T17:05:13.240Z,96814.31
2023-01-09T17:07:40.135Z,96809.75
2023-01-09T17:10:10.775Z,96817.78
2023-01-09T17:12:38.731Z,96825.09
2023-01-09T17:15:06.050Z,96830.91
2023-01-09T17:17:32.925Z,96818.91
2023-01-09T17:19:59.776Z,96821.91
2023-01-09T17:22:26.439Z,96813.94
2023-01-09T17:25:11.976Z,96809.31
2023-01-09T17:27:57.747Z,96802.03
2023-01-09T17:30:24.666Z,96799.37
2023-01-09T17:32:51.676Z,96797.03
2023-01-09T17:35:18.584Z,96804.22
2023-01-09T17:37:45.459Z,96798.44
2023-01-09T17:40:18.828Z,96800.78
2023-01-09T17:42:45.765Z,96797.84
2023-01-09T17:45:12.654Z,96792.63
2023-01-09T17:47:39.555Z,96791.53
2023-01-09T17:50:07.159Z,96789.25
2023-01-09T17:52:34.059Z,96787.47
2023-01-09T17:55:05.470Z,96780.25
2023-01-09T17:57:33.100Z,96779.97
2023-01-09T18:00:00.030Z,96776.41
2023-01-09T18:02:27.014Z,96776.75
2023-01-09T18:04:54.004Z,96773.66
2023-01-09T18:07:20.892Z,96781.34
2023-01-09T18:09:47.790Z,96773.22
2023-01-09T18:12:14.828Z,96783.16
2023-01-09T18:14:42.341Z,96788.00
2023-01-09T18:17:12.354Z,96781.91
2023-01-09T18:19:39.256Z,96784.69
2023-01-09T18:22:06.255Z,96775.59
2023-01-09T18:24:33.089Z,96772.66
2023-01-09T18:26:59.765Z,96781.62
2023-01-09T18:29:26.629Z,96776.78
2023-01-09T18:31:53.469Z,96778.63
2023-01-09T18:34:20.424Z,96782.03
2023-01-09T18:36:47.455Z,96772.84
2023-01-09T18:39:14.399Z,96772.81
2023-01-09T18:41:41.269Z,96775.84
2023-01-09T18:44:09.067Z,96774.09
2023-01-09T18:46:38.456Z,96771.16
2023-01-09T18:49:05.547Z,96764.44
2023-01-09T18:51:34.641Z,96770.69
2023-01-09T18:54:01.680Z,96766.75
2023-01-09T18:56:28.538Z,96765.50
2023-01-09T18:58:56.868Z,96774.19
2023-01-09T19:01:24.499Z,96775.41
2023-01-09T19:03:51.478Z,96766.31
2023-01-09T19:06:18.404Z,96769.19
2023-01-09T19:08:45.377Z,96767.25
2023-01-09T19:11:12.275Z,96759.16
2023-01-09T19:13:39.289Z,96770.97
2023-01-09T19:16:08.234Z,96771.25
2023-01-09T19:18:37.940Z,96759.97
2023-01-09T19:21:22.205Z,96766.34
2023-01-09T19:23:49.853Z,96769.16
2023-01-09T19:26:23.851Z,96759.25
2023-01-09T19:28:52.040Z,96760.72
2023-01-09T19:31:19.083Z,96755.75
2023-01-09T19:33:46.001Z,96758.19
2023-01-09T19:36:12.892Z,96753.94
2023-01-09T19:38:39.772Z,96755.78
2023-01-09T19:41:13.106Z,96755.31
2023-01-09T19:43:43.443Z,96757.66
2023-01-09T19:46:12.892Z,96749.16
2023-01-09T19:48:39.854Z,96750.25
2023-01-09T19:51:07.827Z,96752.66
2023-01-09T19:53:36.148Z,96744.13
2023-01-09T19:56:22.865Z,96746.84
2023-01-09T19:58:58.172Z,96742.12
2023-01-09T20:01:27.588Z,96741.66
2023-01-09T20:03:56.635Z,96744.91
2023-01-09T20:06:25.092Z,96742.22
2023-01-09T20:08:56.984Z,96741.19
2023-01-09T20:11:25.592Z,96743.31
2023-01-09T20:13:52.501Z,96736.53
2023-01-09T20:16:21.615Z,96738.06
2023-01-09T20:18:48.888Z,96740.03
2023-01-09T20:23:52.777Z,96734.19
2023-01-09T20:26:20.787Z,96738.97
2023-01-09T20:28:47.955Z,96738.72
2023-01-09T20:31:17.421Z,96742.66
2023-01-09T20:33:45.367Z,96739.25
2023-01-09T20:36:12.434Z,96732.31
2023-01-09T20:38:40.255Z,96729.16
2023-01-09T20:41:12.778Z,96729.47
2023-01-09T20:43:40.408Z,96716.22
2023-01-09T20:46:07.767Z,96720.75
2023-01-09T20:48:34.693Z,96719.66
2023-01-09T20:51:08.212Z,96712.53
2023-01-09T20:53:35.142Z,96714.72
2023-01-09T20:56:05.009Z,96706.63
2023-01-09T20:58:31.919Z,96713.81
2023-01-09T21:01:11.216Z,96705.28
2023-01-09T21:03:38.407Z,96701.50
2023-01-09T21:06:10.076Z,96693.97
2023-01-09T21:08:37.885Z,96701.50
2023-01-09T21:11:05.418Z,96689.34
2023-01-09T21:13:32.297Z,96692.06
2023-01-09T21:16:09.891Z,96695.84
2023-01-09T21:18:37.542Z,96684.84
2023-01-09T21:21:06.028Z,96682.47
2023-01-09T21:23:33.353Z,96689.69
2023-01-09T21:26:00.358Z,96699.03
2023-01-09T21:28:29.275Z,96690.34
2023-01-09T21:30:56.193Z,96690.44
2023-01-09T21:33:23.127Z,96687.25
2023-01-09T21:35:57.177Z,96687.88
2023-01-09T21:38:25.485Z,96697.69
2023-01-09T21:40:53.388Z,96702.59
2023-01-09T21:43:44.835Z,96686.91
2023-01-09T21:46:34.332Z,96702.69
2023-01-09T21:49:05.975Z,96697.09
2023-01-09T21:51:38.979Z,96685.72
2023-01-09T21:54:05.868Z,96697.31
2023-01-09T21:56:32.502Z,96693.69
2023-01-09T21:58:59.425Z,96702.19
2023-01-09T22:01:26.291Z,96704.16
2023-01-09T22:03:56.512Z,96701.22
2023-01-09T22:06:23.912Z,96704.69
2023-01-09T22:08:51.254Z,96692.47
2023-01-09T22:11:18.110Z,96702.69
2023-01-09T22:13:48.273Z,96713.91
2023-01-09T22:16:15.229Z,96703.66
2023-01-09T22:18:42.107Z,96717.13
2023-01-09T22:21:08.848Z,96708.78
2023-01-09T22:23:35.897Z,96707.87
2023-01-09T22:26:10.917Z,96706.72
2023-01-09T22:28:37.742Z,96711.72
2023-01-09T22:31:08.583Z,96718.00
2023-01-09T22:33:35.663Z,96727.34
2023-01-09T22:36:10.188Z,96718.38
2023-01-09T22:38:37.428Z,96729.66
2023-01-09T22:41:04.382Z,96716.37
2023-01-09T22:43:31.824Z,96725.44
2023-01-09T22:46:00.716Z,96721.78
2023-01-09T22:48:28.990Z,96728.09
2023-01-09T22:50:59.864Z,96740.03
2023-01-09T22:53:26.700Z,96732.63
2023-01-09T22:55:56.937Z,96738.09
2023-01-09T22:58:24.764Z,96742.41
2023-01-09T23:00:52.488Z,96744.41
2023-01-09T23:03:19.527Z,96724.22
2023-01-09T23:05:46.475Z,96739.28
2023-01-09T23:08:14.339Z,96736.47
2023-01-09T23:10:41.813Z,96735.53
2023-01-09T23:13:08.729Z,96747.41
2023-01-09T23:15:35.579Z,96741.41
2023-01-09T23:18:02.217Z,96742.25
2023-01-09T23:20:29.103Z,96744.19
2023-01-09T23:22:58.265Z,96741.28
2023-01-09T23:25:25.781Z,96737.47
2023-01-09T23:27:52.648Z,96730.87
2023-01-09T23:30:19.327Z,96747.09
2023-01-09T23:32:46.264Z,96738.13
2023-01-09T23:35:16.206Z,96747.91
2023-01-09T23:37:44.005Z,96739.00
2023-01-09T23:40:12.004Z,96739.63
2023-01-09T23:42:57.925Z,96743.56
2023-01-09T23:45:24.828Z,96740.03
2023-01-09T23:47:51.751Z,96733.88
2023-01-09T23:50:18.854Z,96732.88
2023-01-09T23:52:45.901Z,96735.47
2023-01-09T23:55:12.812Z,96732.97
2023-01-09T23:57:39.653Z,96731.72
